Time;durP1;ratioP1;P1;durP2;ratioP2;P2;SDS_P1;SDS_P2;PMS_P1;PMS_P2;Temp;Humidity;BMP_temperature;BMP_pressure;BME280_temperature;BME280_humidity;BME280_pressure;Samples;Min_cycle;Max_cycle;Signal;HPM_P1;HPM_P2
2021/05/20 00:01:43;;;;;;;13.23;9.30;;;;;;;19.19;71.20;98601.94;4950392;29;20031;-56
2021/05/20 00:04:09;;;;;;;18.40;9.30;;;;;;;19.34;72.29;98582.44;4949953;29;20034;-56
2021/05/20 00:06:35;;;;;;;13.43;9.18;;;;;;;19.31;72.52;98573.00;4950402;29;20228;-55
2021/05/20 00:09:00;;;;;;;18.98;10.10;;;;;;;19.23;74.13;98569.28;4949990;29;20035;-55
2021/05/20 00:11:26;;;;;;;14.35;9.32;;;;;;;19.27;72.43;98573.34;4950162;29;20038;-55
2021/05/20 00:13:52;;;;;;;12.73;9.32;;;;;;;19.21;74.38;98571.16;4950270;29;20051;-56
2021/05/20 00:16:18;;;;;;;13.32;10.32;;;;;;;19.28;74.46;98559.25;4950111;29;20047;-56
2021/05/20 00:18:43;;;;;;;15.65;9.80;;;;;;;19.21;74.32;98576.41;4950124;29;20040;-56
2021/05/20 00:21:09;;;;;;;14.73;9.57;;;;;;;19.10;74.43;98592.97;4950026;29;20028;-56
2021/05/20 00:23:35;;;;;;;16.27;10.90;;;;;;;19.22;74.57;98601.72;4950149;29;20031;-56
2021/05/20 00:26:01;;;;;;;14.63;9.65;;;;;;;19.10;73.37;98595.59;4949741;29;20054;-56
2021/05/20 00:28:27;;;;;;;17.13;11.77;;;;;;;18.97;73.71;98565.00;4949885;29;20035;-56
2021/05/20 00:31:03;;;;;;;14.38;10.90;;;;;;;18.83;72.53;98590.59;4949558;29;20227;-55
2021/05/20 00:33:29;;;;;;;16.60;10.77;;;;;;;18.73;72.48;98579.91;4949912;29;20320;-55
2021/05/20 00:36:01;;;;;;;16.73;10.35;;;;;;;18.95;72.38;98568.69;4949897;29;20035;-55
2021/05/20 00:38:26;;;;;;;15.10;10.75;;;;;;;19.09;73.59;98570.31;4949827;28;20340;-55
2021/05/20 00:41:01;;;;;;;19.42;11.18;;;;;;;18.97;72.04;98587.81;4950097;29;20331;-55
2021/05/20 00:43:27;;;;;;;15.30;10.70;;;;;;;18.92;73.59;98595.16;4949696;29;20040;-56
2021/05/20 00:45:54;;;;;;;16.08;11.00;;;;;;;18.93;73.22;98605.53;4949875;29;20028;-56
2021/05/20 00:48:19;;;;;;;15.32;11.18;;;;;;;18.99;73.74;98606.06;4946638;29;20028;-56
2021/05/20 00:50:46;;;;;;;13.95;11.07;;;;;;;18.42;71.19;98590.81;4946969;29;20075;-53
2021/05/20 00:53:12;;;;;;;15.45;11.65;;;;;;;18.31;72.79;98584.69;4946625;29;20034;-55
2021/05/20 00:55:39;;;;;;;16.58;11.52;;;;;;;18.33;73.04;98604.59;4946811;29;20043;-56
2021/05/20 00:58:07;;;;;;;16.90;12.02;;;;;;;18.40;73.66;98613.69;4946823;29;20232;-55
2021/05/20 01:00:33;;;;;;;14.63;11.77;;;;;;;18.38;73.85;98633.09;4946780;29;20032;-56
2021/05/20 01:03:00;;;;;;;17.20;12.18;;;;;;;18.41;73.08;98607.53;4935771;29;20028;-56
2021/05/20 01:05:26;;;;;;;16.90;11.60;;;;;;;18.38;72.10;98610.34;4927597;29;20564;-56
2021/05/20 01:07:52;;;;;;;22.90;14.68;;;;;;;18.36;73.27;98625.34;4927274;29;20032;-55
2021/05/20 01:10:18;;;;;;;17.00;11.55;;;;;;;18.41;71.88;98612.75;4926267;29;20035;-56
2021/05/20 01:12:44;;;;;;;16.48;11.32;;;;;;;18.58;71.94;98622.03;4927639;29;20224;-56
2021/05/20 01:15:26;;;;;;;19.13;11.60;;;;;;;18.59;72.51;98636.00;4927163;29;20070;-55
2021/05/20 01:17:57;;;;;;;14.95;11.52;;;;;;;18.57;71.56;98611.63;4927456;29;20052;-56
2021/05/20 01:20:32;;;;;;;15.10;11.60;;;;;;;18.46;71.88;98618.50;4927267;29;20099;-56
2021/05/20 01:23:03;;;;;;;17.88;11.80;;;;;;;18.53;72.82;98649.53;4927413;29;20028;-57
2021/05/20 01:25:29;;;;;;;17.10;11.00;;;;;;;18.44;71.46;98625.66;4927223;29;20296;-57
2021/05/20 01:28:02;;;;;;;12.88;9.48;;;;;;;18.31;71.86;98624.00;4926794;29;20120;-56
2021/05/20 01:30:28;;;;;;;12.15;9.57;;;;;;;18.49;70.75;98606.13;4926502;29;20044;-56
2021/05/20 01:32:54;;;;;;;11.43;9.07;;;;;;;18.66;70.48;98600.50;4927042;29;20024;-56
2021/05/20 01:35:19;;;;;;;15.77;11.50;;;;;;;18.49;74.19;98593.03;4926996;29;20039;-57
2021/05/20 01:37:45;;;;;;;13.63;9.82;;;;;;;18.66;70.74;98583.94;4927121;29;20224;-56
2021/05/20 01:40:12;;;;;;;11.32;9.45;;;;;;;18.55;70.96;98566.34;4926920;29;20032;-54
2021/05/20 01:42:38;;;;;;;11.30;8.20;;;;;;;18.67;71.52;98575.09;4926646;29;20039;-55
2021/05/20 01:45:04;;;;;;;9.02;7.88;;;;;;;18.57;69.52;98569.69;4926652;29;20056;-55
2021/05/20 01:47:30;;;;;;;8.20;7.38;;;;;;;18.59;70.24;98570.44;4926704;29;20079;-55
2021/05/20 01:49:58;;;;;;;7.53;6.78;;;;;;;18.64;69.45;98578.81;4927012;29;20032;-55
2021/05/20 01:52:24;;;;;;;6.53;5.93;;;;;;;18.67;68.91;98581.19;4927005;29;20036;-55
2021/05/20 01:54:49;;;;;;;6.47;5.88;;;;;;;18.75;68.03;98584.06;4926663;29;20071;-55
2021/05/20 01:57:15;;;;;;;6.90;5.95;;;;;;;18.74;67.53;98582.44;4926815;29;20087;-55
2021/05/20 01:59:42;;;;;;;7.38;6.63;;;;;;;18.78;69.28;98570.75;4925847;29;20059;-56
2021/05/20 02:02:07;;;;;;;9.70;7.80;;;;;;;18.62;71.28;98584.13;4939956;29;20080;-55
2021/05/20 02:04:33;;;;;;;7.00;6.28;;;;;;;18.61;68.86;98577.25;4926864;29;20213;-57
2021/05/20 02:06:59;;;;;;;8.25;6.70;;;;;;;18.69;69.26;98596.81;4926442;29;20028;-56
2021/05/20 02:09:24;;;;;;;7.63;6.90;;;;;;;18.66;70.04;98595.25;4926475;29;20217;-58
2021/05/20 02:11:50;;;;;;;10.05;6.93;;;;;;;18.68;69.55;98593.34;4926352;29;20206;-57
2021/05/20 02:14:16;;;;;;;7.63;6.68;;;;;;;18.83;69.98;98614.19;4926169;29;20047;-57
2021/05/20 02:16:42;;;;;;;8.00;7.30;;;;;;;18.51;68.89;98610.28;4926292;29;20032;-56
2021/05/20 02:19:08;;;;;;;9.15;7.38;;;;;;;18.75;69.03;98610.31;4926389;29;20052;-56
2021/05/20 02:21:34;;;;;;;8.55;7.03;;;;;;;18.73;68.56;98617.47;4926409;29;20032;-55
2021/05/20 02:24:00;;;;;;;8.57;7.43;;;;;;;18.72;69.62;98631.53;4925670;29;20036;-57
2021/05/20 02:26:26;;;;;;;8.98;8.10;;;;;;;18.79;69.18;98622.25;4944323;29;20055;-56
2021/05/20 02:28:53;;;;;;;11.45;10.00;;;;;;;18.94;69.03;98624.75;4944566;29;20220;-56
2021/05/20 02:31:19;;;;;;;12.43;10.32;;;;;;;18.59;70.22;98625.50;4944546;29;20028;-56
2021/05/20 02:33:45;;;;;;;12.30;9.93;;;;;;;18.46;69.74;98599.31;4945019;29;20038;-56
2021/05/20 02:36:11;;;;;;;13.52;11.18;;;;;;;18.49;70.86;98604.34;4944797;29;20099;-57
2021/05/20 02:38:36;;;;;;;13.15;10.40;;;;;;;18.46;70.98;98604.56;4944996;28;20586;-56
2021/05/20 02:41:02;;;;;;;11.70;10.05;;;;;;;18.40;69.96;98592.72;4944754;29;20028;-56
2021/05/20 02:43:28;;;;;;;13.48;9.90;;;;;;;18.54;70.33;98594.38;4942857;29;20055;-56
2021/05/20 02:45:54;;;;;;;11.13;10.00;;;;;;;18.44;70.65;98594.19;4944612;29;20058;-56
2021/05/20 02:48:19;;;;;;;11.73;9.82;;;;;;;18.48;70.25;98591.34;4944761;28;20054;-56
2021/05/20 02:50:45;;;;;;;11.20;9.55;;;;;;;18.75;69.43;98609.47;4944839;29;20031;-56
2021/05/20 02:53:11;;;;;;;11.35;9.40;;;;;;;18.72;69.28;98605.28;4944568;29;20026;-57
2021/05/20 02:55:36;;;;;;;13.45;8.90;;;;;;;18.68;69.39;98600.38;4944492;29;20027;-57
2021/05/20 02:58:03;;;;;;;10.88;8.93;;;;;;;18.77;69.00;98586.63;4944230;29;20038;-57
2021/05/20 03:00:35;;;;;;;13.57;9.07;;;;;;;19.07;68.58;98585.31;4944153;29;20023;-57
2021/05/20 03:03:01;;;;;;;13.15;9.55;;;;;;;18.96;69.76;98601.88;4944450;29;20027;-57
2021/05/20 03:05:27;;;;;;;12.32;9.25;;;;;;;18.97;69.21;98606.16;4944524;29;20027;-56
2021/05/20 03:07:56;;;;;;;12.90;8.98;;;;;;;19.25;68.95;98586.59;4944623;29;20028;-56
2021/05/20 03:10:23;;;;;;;13.15;9.77;;;;;;;19.30;69.95;98571.31;4944094;29;20034;-55
2021/05/20 03:12:49;;;;;;;12.75;9.65;;;;;;;19.22;70.41;98575.47;4944000;29;20042;-56
2021/05/20 03:15:15;;;;;;;12.65;8.85;;;;;;;19.10;66.54;98572.81;4943944;29;20020;-56
2021/05/20 03:17:40;;;;;;;13.90;9.02;;;;;;;19.22;68.06;98560.53;4943926;29;20276;-55
2021/05/20 03:20:07;;;;;;;10.07;8.82;;;;;;;19.39;69.12;98572.38;4944419;29;20324;-55
2021/05/20 03:22:33;;;;;;;12.15;9.68;;;;;;;19.52;67.41;98585.44;4943955;29;20115;-56
2021/05/20 03:24:59;;;;;;;11.50;9.07;;;;;;;19.68;67.07;98592.97;4943689;29;20316;-55
2021/05/20 03:27:25;;;;;;;11.63;9.15;;;;;;;19.65;66.53;98587.94;4944048;29;20043;-56
2021/05/20 03:29:50;;;;;;;14.40;10.27;;;;;;;19.58;67.01;98586.75;4943934;29;20042;-56
2021/05/20 03:32:16;;;;;;;17.27;11.07;;;;;;;19.27;66.21;98568.91;4943877;29;20046;-56
2021/05/20 03:34:42;;;;;;;12.80;10.15;;;;;;;19.45;66.93;98557.97;4943940;29;20035;-56
2021/05/20 03:37:08;;;;;;;15.55;10.20;;;;;;;19.36;66.83;98556.88;4943842;29;20136;-55
2021/05/20 03:39:34;;;;;;;15.65;10.40;;;;;;;19.35;66.66;98536.81;4944102;29;20312;-55
2021/05/20 03:42:01;;;;;;;11.80;9.77;;;;;;;19.53;66.13;98523.25;4943726;29;20030;-56
2021/05/20 03:44:27;;;;;;;12.15;9.80;;;;;;;19.54;65.63;98520.50;4943964;29;20104;-56
2021/05/20 03:46:54;;;;;;;11.00;9.43;;;;;;;19.59;66.81;98528.00;4944079;29;20182;-55
2021/05/20 03:49:20;;;;;;;9.77;8.48;;;;;;;19.96;64.74;98527.78;4943593;29;20031;-55
2021/05/20 03:51:46;;;;;;;11.15;9.05;;;;;;;20.13;64.03;98535.16;4943450;29;20027;-56
2021/05/20 03:54:12;;;;;;;9.40;8.50;;;;;;;20.18;63.53;98548.78;4943672;29;20312;-55
2021/05/20 03:56:37;;;;;;;13.57;8.77;;;;;;;20.30;65.07;98546.13;4943734;29;20086;-56
2021/05/20 03:59:04;;;;;;;9.38;8.13;;;;;;;19.72;62.79;98557.63;4942223;29;20039;-56
2021/05/20 04:01:29;;;;;;;9.82;8.40;;;;;;;19.94;62.73;98562.09;4943490;29;20027;-57
2021/05/20 04:03:55;;;;;;;10.20;8.35;;;;;;;19.96;62.98;98567.22;4942783;29;20379;-56
2021/05/20 04:06:21;;;;;;;13.30;8.57;;;;;;;20.20;63.04;98571.50;4942381;28;20208;-56
2021/05/20 04:08:47;;;;;;;11.60;8.88;;;;;;;19.76;63.04;98572.19;4943752;29;20054;-57
2021/05/20 04:11:13;;;;;;;12.23;8.60;;;;;;;20.06;63.40;98564.69;4943332;29;20070;-57
2021/05/20 04:13:41;;;;;;;11.70;9.18;;;;;;;19.85;64.40;98543.56;4943549;28;20050;-57
2021/05/20 04:16:09;;;;;;;11.25;9.18;;;;;;;19.61;63.80;98560.25;4943247;28;20508;-57
2021/05/20 04:18:35;;;;;;;14.68;9.48;;;;;;;19.66;65.11;98555.47;4943561;29;20048;-56
2021/05/20 04:21:01;;;;;;;10.27;8.75;;;;;;;19.87;63.10;98573.19;4943474;29;20284;-56
2021/05/20 04:23:28;;;;;;;10.23;9.23;;;;;;;19.78;63.41;98582.59;4946314;28;20038;-56
2021/05/20 04:25:54;;;;;;;11.40;9.48;;;;;;;19.37;65.09;98573.44;4947457;29;20027;-56
2021/05/20 04:28:20;;;;;;;10.60;9.50;;;;;;;19.63;64.25;98580.19;4946899;28;20259;-56
2021/05/20 04:30:47;;;;;;;10.38;9.38;;;;;;;19.66;63.63;98564.19;4947049;29;20042;-55
2021/05/20 04:33:13;;;;;;;12.35;9.48;;;;;;;19.51;64.19;98572.41;4947096;29;20101;-55
2021/05/20 04:35:39;;;;;;;12.88;9.13;;;;;;;19.69;64.62;98578.88;4946271;29;20371;-55
2021/05/20 04:38:07;;;;;;;13.82;9.77;;;;;;;19.46;65.64;98578.84;4943828;29;20426;-54
2021/05/20 04:40:34;;;;;;;10.52;9.50;;;;;;;19.51;65.27;98585.53;4945049;28;20261;-56
2021/05/20 04:43:00;;;;;;;11.60;10.13;;;;;;;19.59;65.87;98575.28;4945107;28;20028;-55
2021/05/20 04:45:26;;;;;;;11.43;9.32;;;;;;;19.71;64.29;98555.97;4945182;29;20220;-56
2021/05/20 04:47:52;;;;;;;12.40;9.48;;;;;;;19.58;64.75;98581.50;4945150;29;20031;-56
2021/05/20 04:50:18;;;;;;;12.90;8.55;;;;;;;19.81;65.08;98588.47;4945230;29;20038;-56
2021/05/20 04:52:45;;;;;;;8.63;7.80;;;;;;;19.57;64.29;98595.59;4945472;29;20210;-55
2021/05/20 04:55:12;;;;;;;9.95;7.30;;;;;;;19.83;63.83;98591.00;4945581;29;20030;-56
2021/05/20 04:57:38;;;;;;;9.48;7.15;;;;;;;19.67;64.26;98596.56;4945524;29;20067;-56
2021/05/20 05:00:07;;;;;;;8.02;6.70;;;;;;;19.76;64.46;98611.59;4945727;29;20039;-56
2021/05/20 05:02:32;;;;;;;7.90;5.60;;;;;;;19.60;64.17;98605.88;4944527;29;20035;-56
2021/05/20 05:04:58;;;;;;;5.25;4.75;;;;;;;19.66;64.03;98590.44;4945448;29;20079;-56
2021/05/20 05:07:24;;;;;;;8.75;4.45;;;;;;;19.50;64.12;98589.97;4944505;29;20035;-56
2021/05/20 05:09:50;;;;;;;5.15;3.47;;;;;;;19.30;63.41;98579.19;4946329;29;20205;-56
2021/05/20 05:12:15;;;;;;;4.72;3.47;;;;;;;19.20;63.37;98585.25;4946361;28;20028;-55
2021/05/20 05:14:41;;;;;;;4.07;2.80;;;;;;;19.24;63.30;98589.28;4935294;28;20043;-56
2021/05/20 05:17:07;;;;;;;4.57;3.70;;;;;;;19.30;63.34;98580.97;4927458;29;20036;-56
2021/05/20 05:19:33;;;;;;;5.40;3.55;;;;;;;19.33;63.12;98596.50;4927100;29;20351;-56
2021/05/20 05:22:02;;;;;;;6.25;4.00;;;;;;;19.31;63.78;98583.50;4926947;29;20047;-56
2021/05/20 05:24:29;;;;;;;6.65;3.88;;;;;;;19.27;64.00;98575.97;4926987;29;20356;-56
2021/05/20 05:26:55;;;;;;;5.43;3.80;;;;;;;19.28;64.38;98585.50;4926934;29;20032;-56
2021/05/20 05:29:21;;;;;;;6.75;4.30;;;;;;;19.15;64.30;98582.94;4927035;29;20055;-57
2021/05/20 05:31:48;;;;;;;6.30;4.18;;;;;;;19.07;64.72;98594.03;4926555;29;20122;-56
2021/05/20 05:34:14;;;;;;;4.78;3.58;;;;;;;19.11;65.44;98584.13;4924968;29;20028;-55
2021/05/20 05:36:40;;;;;;;5.30;4.20;;;;;;;19.20;65.12;98593.97;4926671;29;20024;-55
2021/05/20 05:39:06;;;;;;;6.78;4.55;;;;;;;19.14;64.82;98591.81;4926734;29;20028;-55
2021/05/20 05:41:32;;;;;;;4.45;4.05;;;;;;;19.05;65.05;98606.41;4926531;29;20035;-56
2021/05/20 05:43:57;;;;;;;5.88;4.95;;;;;;;18.84;65.90;98593.09;4926611;29;20047;-56
2021/05/20 05:46:23;;;;;;;7.40;5.15;;;;;;;18.74;66.00;98598.16;4925502;29;20032;-56
2021/05/20 05:48:49;;;;;;;8.18;5.13;;;;;;;18.93;66.28;98595.06;4926311;29;20194;-56
2021/05/20 05:51:18;;;;;;;5.38;4.57;;;;;;;18.66;67.28;98592.63;4926554;29;20048;-55
2021/05/20 05:53:44;;;;;;;6.95;4.75;;;;;;;18.85;67.57;98593.91;4926434;29;20032;-56
2021/05/20 05:56:10;;;;;;;8.18;5.43;;;;;;;19.14;66.85;98583.94;4926039;29;20273;-55
2021/05/20 05:58:36;;;;;;;7.55;5.15;;;;;;;19.21;67.02;98573.78;4926343;29;20063;-55
2021/05/20 06:01:03;;;;;;;6.38;4.70;;;;;;;19.14;66.89;98583.94;4926127;29;20040;-55
2021/05/20 06:03:29;;;;;;;7.35;4.68;;;;;;;19.22;67.14;98585.97;4927903;29;20224;-55
2021/05/20 06:05:55;;;;;;;8.30;4.93;;;;;;;19.39;66.39;98603.91;4926038;28;20115;-56
2021/05/20 06:08:21;;;;;;;7.60;5.40;;;;;;;19.24;66.31;98590.16;4936057;29;20224;-56
2021/05/20 06:10:47;;;;;;;6.13;5.13;;;;;;;19.05;67.78;98610.84;4933647;29;20024;-56
2021/05/20 06:13:13;;;;;;;6.20;5.60;;;;;;;19.11;66.73;98615.63;4934985;29;20229;-57
2021/05/20 06:15:39;;;;;;;9.40;5.10;;;;;;;18.98;66.67;98620.94;4933856;29;20024;-56
2021/05/20 06:18:05;;;;;;;5.50;4.85;;;;;;;18.63;68.03;98622.53;4926001;29;20082;-57
2021/05/20 06:20:31;;;;;;;7.32;4.93;;;;;;;18.95;66.58;98615.94;4925873;29;20143;-56
2021/05/20 06:22:57;;;;;;;6.68;4.97;;;;;;;18.60;67.66;98620.13;4943526;29;20028;-56
2021/05/20 06:25:23;;;;;;;7.68;4.70;;;;;;;18.78;66.96;98628.47;4944996;29;20036;-54
2021/05/20 06:27:50;;;;;;;8.48;5.40;;;;;;;18.21;68.21;98643.00;4943714;29;20031;-55
2021/05/20 06:30:16;;;;;;;10.23;5.43;;;;;;;18.27;67.21;98657.44;4944697;29;20331;-55
2021/05/20 06:32:44;;;;;;;9.63;5.22;;;;;;;18.60;66.74;98662.09;4944424;29;20047;-55
2021/05/20 06:35:10;;;;;;;7.03;5.25;;;;;;;18.60;66.58;98661.28;4944284;29;20221;-55
2021/05/20 06:37:37;;;;;;;7.18;5.10;;;;;;;18.41;67.08;98640.75;4944254;28;20035;-55
2021/05/20 06:40:05;;;;;;;9.18;4.80;;;;;;;18.45;66.21;98590.63;4944105;28;20273;-56
2021/05/20 06:42:31;;;;;;;8.15;4.72;;;;;;;18.72;66.81;98591.34;4944114;29;20032;-56
2021/05/20 06:44:57;;;;;;;7.43;4.97;;;;;;;18.80;67.51;98589.84;4944205;29;20047;-56
2021/05/20 06:47:23;;;;;;;5.47;4.80;;;;;;;18.94;66.86;98578.38;4943614;29;20034;-55
2021/05/20 06:49:49;;;;;;;8.52;5.20;;;;;;;18.94;67.09;98578.38;4943807;29;20039;-55
2021/05/20 06:52:14;;;;;;;5.93;4.95;;;;;;;18.88;66.28;98580.59;4944279;29;20032;-55
2021/05/20 06:54:40;;;;;;;6.78;5.00;;;;;;;18.92;67.18;98585.50;4943898;29;20024;-56
2021/05/20 06:57:09;;;;;;;8.75;5.40;;;;;;;18.90;67.56;98576.91;4944087;29;20024;-55
2021/05/20 07:02:19;;;;;;;18.13;8.05;;;;;;;18.89;68.20;98584.91;4941657;29;20036;-56
2021/05/20 07:04:45;;;;;;;7.07;5.38;;;;;;;18.84;68.90;98576.50;4938990;29;20039;-56
2021/05/20 07:07:12;;;;;;;6.65;5.10;;;;;;;18.77;67.34;98566.47;4940576;29;20244;-54
2021/05/20 07:09:39;;;;;;;6.40;5.15;;;;;;;18.49;67.78;98582.53;4940434;29;20054;-56
2021/05/20 07:12:05;;;;;;;6.15;5.03;;;;;;;18.77;68.14;98587.44;4941105;29;20034;-56
2021/05/20 07:14:31;;;;;;;6.35;5.20;;;;;;;18.58;68.51;98597.59;4941050;29;20031;-55
2021/05/20 07:16:57;;;;;;;7.28;5.13;;;;;;;18.63;68.96;98600.72;4939883;29;20040;-55
2021/05/20 07:19:22;;;;;;;7.28;5.63;;;;;;;18.39;68.76;98611.19;4937917;29;20051;-55
2021/05/20 07:21:49;;;;;;;6.22;5.20;;;;;;;18.42;68.49;98614.41;4938630;29;20031;-56
2021/05/20 07:24:16;;;;;;;8.10;5.78;;;;;;;18.28;68.41;98598.84;4938364;29;20055;-55
2021/05/20 07:26:42;;;;;;;8.02;6.63;;;;;;;18.49;70.19;98619.25;4937170;29;20063;-56
2021/05/20 07:29:08;;;;;;;8.98;6.22;;;;;;;18.43;69.25;98612.66;4938658;29;20035;-56
2021/05/20 07:31:34;;;;;;;8.30;6.30;;;;;;;18.15;70.66;98603.28;4942812;29;20027;-56
2021/05/20 07:34:00;;;;;;;8.20;6.60;;;;;;;18.37;71.43;98619.16;4943371;29;20328;-56
2021/05/20 07:36:26;;;;;;;8.60;6.20;;;;;;;18.00;71.65;98611.28;4942724;28;20070;-56
2021/05/20 07:38:52;;;;;;;6.43;5.82;;;;;;;17.88;71.37;98614.69;4943422;29;20079;-56
2021/05/20 07:41:18;;;;;;;7.25;5.90;;;;;;;18.20;71.96;98615.13;4942861;29;20039;-56
2021/05/20 07:43:44;;;;;;;6.75;5.80;;;;;;;18.19;70.67;98609.97;4943488;29;20036;-55
2021/05/20 07:46:10;;;;;;;8.18;5.50;;;;;;;17.98;70.69;98596.59;4943851;29;20099;-55
2021/05/20 07:48:37;;;;;;;5.30;4.80;;;;;;;18.21;69.40;98611.56;4942839;29;20036;-56
2021/05/20 07:51:05;;;;;;;6.28;5.43;;;;;;;18.22;70.13;98620.25;4940673;29;20138;-55
2021/05/20 07:53:31;;;;;;;7.45;5.15;;;;;;;18.56;69.59;98612.59;4918648;29;20046;-55
2021/05/20 07:55:57;;;;;;;5.50;4.95;;;;;;;18.67;68.51;98617.91;4943884;29;20563;-55
2021/05/20 07:58:23;;;;;;;6.57;4.57;;;;;;;18.19;68.69;98625.72;4945198;29;21059;-55
2021/05/20 08:00:49;;;;;;;5.97;4.35;;;;;;;18.16;68.12;98610.22;4946163;29;20047;-55
2021/05/20 08:03:28;;;;;;;4.45;4.05;;;;;;;18.36;68.21;98604.38;4947126;29;20072;-55
2021/05/20 08:11:03;;;;;;;7.03;4.55;;;;;;;18.51;68.48;98633.06;4943509;29;20379;-55
2021/05/20 08:13:30;;;;;;;5.18;4.50;;;;;;;18.66;67.78;98633.78;4937622;29;20016;-54
2021/05/20 08:15:56;;;;;;;4.93;4.45;;;;;;;18.13;68.89;98620.88;4941448;29;21017;-54
2021/05/20 08:18:22;;;;;;;6.40;4.63;;;;;;;18.31;68.58;98624.81;4940339;29;20048;-55
2021/05/20 08:20:48;;;;;;;7.93;4.60;;;;;;;18.49;67.63;98614.00;4944034;29;20047;-55
2021/05/20 08:23:13;;;;;;;5.85;4.63;;;;;;;18.60;68.28;98607.03;4947150;29;20028;-55
2021/05/20 08:25:39;;;;;;;4.55;4.10;;;;;;;18.68;66.96;98603.00;4946953;29;20220;-56
2021/05/20 08:28:05;;;;;;;5.75;4.53;;;;;;;18.45;66.80;98598.50;4946117;29;20036;-56
2021/05/20 08:30:31;;;;;;;8.45;4.40;;;;;;;18.34;67.24;98606.28;4946071;28;20224;-56
2021/05/20 08:32:57;;;;;;;6.05;5.45;;;;;;;18.13;68.29;98602.53;4946847;29;20043;-56
2021/05/20 08:35:23;;;;;;;7.85;5.03;;;;;;;18.15;68.09;98622.44;4946375;29;20050;-55
2021/05/20 08:37:49;;;;;;;7.28;4.90;;;;;;;18.19;68.19;98631.78;4945640;29;20036;-55
2021/05/20 08:40:15;;;;;;;7.43;5.50;;;;;;;17.85;69.63;98641.09;4946307;29;20035;-56
2021/05/20 08:42:41;;;;;;;5.38;4.60;;;;;;;18.20;68.37;98645.72;4946236;29;20066;-54
2021/05/20 08:45:14;;;;;;;6.40;5.55;;;;;;;18.10;69.71;98646.38;4940329;29;20032;-55
2021/05/20 08:47:41;;;;;;;9.10;6.68;;;;;;;17.74;71.01;98650.53;4945236;29;20309;-56
2021/05/20 08:50:07;;;;;;;9.90;9.00;;;;;;;17.49;71.87;98658.38;4945786;29;20031;-56
2021/05/20 08:52:36;;;;;;;10.88;9.88;;;;;;;17.46;73.16;98655.94;4946172;29;20031;-56
2021/05/20 08:55:03;;;;;;;12.98;11.70;;;;;;;17.42;74.20;98666.63;4946245;29;20032;-55
2021/05/20 08:57:29;;;;;;;13.90;12.43;;;;;;;17.19;74.81;98669.91;4945736;29;20338;-56
2021/05/20 08:59:55;;;;;;;15.30;13.88;;;;;;;17.17;75.23;98664.78;4945869;29;20035;-56
2021/05/20 09:02:31;;;;;;;15.82;14.32;;;;;;;17.11;75.25;98673.03;4945830;29;20030;-55
2021/05/20 09:05:07;;;;;;;14.70;13.32;;;;;;;16.70;75.02;98630.28;4939637;29;20050;-55
2021/05/20 09:07:36;;;;;;;15.57;14.10;;;;;;;17.11;75.54;98680.88;4946091;29;20108;-54
2021/05/20 09:10:19;;;;;;;13.63;12.32;;;;;;;17.45;75.03;98659.50;4944869;29;20043;-55
2021/05/20 09:12:46;;;;;;;12.25;10.93;;;;;;;17.50;73.19;98641.69;4945670;29;20331;-56
2021/05/20 09:15:25;;;;;;;11.90;10.73;;;;;;;17.63;72.54;98645.19;4936001;29;20028;-56
2021/05/20 09:17:53;;;;;;;10.57;9.50;;;;;;;17.33;73.26;98642.81;4939800;29;20066;-56
2021/05/20 09:20:19;;;;;;;10.00;8.77;;;;;;;17.53;72.35;98644.97;4939548;29;20040;-56
2021/05/20 09:22:49;;;;;;;9.65;8.65;;;;;;;17.57;72.30;98661.28;4941259;28;20059;-55
2021/05/20 09:25:14;;;;;;;9.60;8.77;;;;;;;17.48;72.39;98664.53;4935597;29;20032;-56
2021/05/20 09:27:45;;;;;;;8.80;8.00;;;;;;;17.34;73.40;98678.53;4937962;29;20050;-56
2021/05/20 09:30:19;;;;;;;10.07;7.88;;;;;;;17.70;72.26;98672.63;4944675;29;20208;-56
2021/05/20 09:32:56;;;;;;;9.80;8.35;;;;;;;17.63;71.68;98660.91;4945469;29;20130;-56
2021/05/20 09:35:29;;;;;;;9.55;8.68;;;;;;;17.39;72.26;98656.34;4944369;29;20027;-56
2021/05/20 09:37:58;;;;;;;11.95;9.00;;;;;;;17.65;72.15;98661.63;4942113;29;20035;-55
2021/05/20 09:40:32;;;;;;;9.30;8.40;;;;;;;17.49;72.13;98666.22;4945319;29;20055;-55
2021/05/20 09:42:58;;;;;;;9.50;8.43;;;;;;;17.64;72.06;98664.34;4945187;29;20078;-56
2021/05/20 09:45:26;;;;;;;9.35;8.45;;;;;;;17.92;72.00;98658.94;4943447;29;20039;-55
2021/05/20 09:48:04;;;;;;;9.77;8.88;;;;;;;17.73;71.25;98653.28;4941607;29;20027;-56
2021/05/20 09:50:29;;;;;;;8.77;7.97;;;;;;;17.39;71.71;98669.44;4939304;29;20031;-56
2021/05/20 09:53:01;;;;;;;10.75;9.10;;;;;;;17.54;71.77;98653.66;4939137;28;20031;-55
2021/05/20 09:55:28;;;;;;;10.27;8.95;;;;;;;17.68;71.13;98648.31;4938739;29;20044;-54
2021/05/20 09:57:56;;;;;;;10.23;9.27;;;;;;;17.71;70.42;98600.97;4941694;29;20020;-56
2021/05/20 10:00:24;;;;;;;12.27;9.40;;;;;;;18.21;69.52;98626.44;4939852;29;20025;-55
2021/05/20 10:03:21;;;;;;;9.52;8.52;;;;;;;18.07;69.65;98624.75;4937763;29;20134;-55
2021/05/20 10:05:51;;;;;;;10.70;8.63;;;;;;;18.10;69.99;98629.81;4937863;29;20035;-56
2021/05/20 10:08:20;;;;;;;10.20;8.48;;;;;;;17.82;69.93;98583.69;4937686;29;20147;-55
2021/05/20 10:10:51;;;;;;;9.10;8.20;;;;;;;18.26;69.33;98653.16;4942330;29;20035;-56
2021/05/20 10:13:28;;;;;;;10.02;8.75;;;;;;;18.48;69.07;98654.28;4935572;29;20592;-55
2021/05/20 10:15:56;;;;;;;9.15;8.25;;;;;;;18.56;68.45;98636.22;4936373;29;20019;-55
2021/05/20 10:18:27;;;;;;;9.68;8.60;;;;;;;18.96;67.18;98659.59;4938688;29;20078;-56
2021/05/20 10:20:58;;;;;;;10.98;9.75;;;;;;;19.07;66.57;98630.78;4936879;29;20051;-55
2021/05/20 10:23:25;;;;;;;9.67;8.37;;;;;;;18.45;66.47;98593.25;4937325;29;20023;-56
2021/05/20 10:25:57;;;;;;;9.30;8.50;;;;;;;18.52;66.78;98601.50;4942297;29;20529;-55
2021/05/20 10:28:25;;;;;;;10.27;9.02;;;;;;;18.45;67.60;98645.69;4942630;29;20097;-55
2021/05/20 10:30:53;;;;;;;11.50;8.98;;;;;;;18.15;67.28;98605.91;4937421;29;20074;-55
2021/05/20 10:33:27;;;;;;;11.25;8.93;;;;;;;17.68;68.43;98588.09;4943671;29;20035;-55
2021/05/20 10:35:54;;;;;;;9.15;8.23;;;;;;;18.26;68.38;98635.63;4939069;29;20038;-55
2021/05/20 10:38:28;;;;;;;9.38;8.18;;;;;;;18.69;66.99;98637.00;4942545;29;20028;-56
2021/05/20 10:41:10;;;;;;;9.55;8.25;;;;;;;18.58;67.55;98644.78;4934527;29;20040;-55
2021/05/20 10:43:37;;;;;;;9.40;8.20;;;;;;;18.59;67.47;98641.22;4941558;29;20087;-55
2021/05/20 10:46:05;;;;;;;8.88;7.97;;;;;;;18.89;66.44;98642.63;4943016;29;20062;-55
2021/05/20 10:48:31;;;;;;;11.70;8.75;;;;;;;18.87;67.27;98641.88;4942805;29;20038;-55
2021/05/20 10:51:02;;;;;;;9.68;7.72;;;;;;;18.87;66.15;98634.88;4943667;28;20174;-56
2021/05/20 10:53:42;;;;;;;8.07;7.30;;;;;;;19.21;64.86;98626.28;4943865;29;20060;-56
2021/05/20 10:56:09;;;;;;;9.75;8.05;;;;;;;18.74;65.82;98585.06;4944108;29;20039;-56
2021/05/20 10:58:36;;;;;;;9.40;7.63;;;;;;;19.41;65.12;98619.53;4943436;29;20091;-55
2021/05/20 11:01:08;;;;;;;8.93;7.07;;;;;;;18.96;64.08;98612.38;4943348;29;20231;-55
2021/05/20 11:03:46;;;;;;;9.57;7.00;;;;;;;19.13;64.96;98617.19;4943768;29;20328;-56
2021/05/20 11:06:12;;;;;;;10.40;7.28;;;;;;;19.18;63.25;98595.03;4939041;29;20055;-57
2021/05/20 11:08:38;;;;;;;8.05;7.22;;;;;;;19.09;63.62;98602.63;4943765;29;20059;-57
2021/05/20 11:11:06;;;;;;;8.45;7.43;;;;;;;18.87;64.54;98586.78;4943608;28;20107;-56
2021/05/20 11:13:46;;;;;;;9.48;7.38;;;;;;;19.18;64.50;98584.50;4942329;28;20232;-55
2021/05/20 11:16:18;;;;;;;8.02;6.95;;;;;;;19.45;63.93;98577.19;4938685;29;20075;-55
2021/05/20 11:18:48;;;;;;;7.53;6.75;;;;;;;19.30;61.58;98541.59;4943408;29;20055;-55
2021/05/20 11:21:15;;;;;;;8.50;6.45;;;;;;;19.25;61.21;98557.72;4944178;29;20036;-56
2021/05/20 11:23:41;;;;;;;7.38;6.05;;;;;;;19.34;60.70;98553.53;4943780;29;20042;-57
2021/05/20 11:26:07;;;;;;;8.70;5.88;;;;;;;19.75;59.80;98554.78;4943487;29;20043;-56
2021/05/20 11:28:51;;;;;;;5.97;4.95;;;;;;;19.46;57.33;98533.38;4942880;29;20038;-55
2021/05/20 11:31:18;;;;;;;5.78;5.15;;;;;;;19.80;56.72;98542.13;4943070;29;20228;-57
2021/05/20 11:33:50;;;;;;;6.70;5.50;;;;;;;20.18;57.33;98527.75;4940647;29;20095;-56
2021/05/20 11:36:17;;;;;;;8.82;5.85;;;;;;;20.13;59.49;98527.28;4942116;29;20031;-56
2021/05/20 11:38:53;;;;;;;5.97;5.28;;;;;;;20.12;60.17;98532.66;4941900;29;20028;-55